createdAt,value
2017-04-22T00:00:33.799Z,57.40
2017-04-22T00:01:39.324Z,57.50
2017-04-22T00:02:44.972Z,57.30
2017-04-22T00:03:51.331Z,57.40
2017-04-22T00:04:56.140Z,57.30
2017-04-22T00:06:01.876Z,57.40
2017-04-22T00:07:08.094Z,57.30
2017-04-22T00:08:12.913Z,57.30
2017-04-22T00:09:18.359Z,57.30
2017-04-22T00:10:23.722Z,57.40
2017-04-22T00:11:29.324Z,57.30
2017-04-22T00:12:35.687Z,57.40
2017-04-22T00:13:42.384Z,57.30
2017-04-22T00:14:47.314Z,57.20
2017-04-22T00:15:52.726Z,57.60
2017-04-22T00:16:58.473Z,57.60
2017-04-22T00:18:03.903Z,57.70
2017-04-22T00:19:09.442Z,57.20
2017-04-22T00:20:14.789Z,57.60
2017-04-22T00:21:20.220Z,57.80
2017-04-22T00:22:25.740Z,57.80
2017-04-22T00:23:31.258Z,57.70
2017-04-22T00:24:37.566Z,58.00
2017-04-22T00:25:43.838Z,57.90
2017-04-22T00:26:48.770Z,57.90
2017-04-22T00:27:54.322Z,58.10
2017-04-22T00:29:00.571Z,57.90
2017-04-22T00:30:06.243Z,58.20
2017-04-22T00:31:11.050Z,58.20
2017-04-22T00:32:16.592Z,58.30
2017-04-22T00:33:22.921Z,58.20
2017-04-22T00:34:27.672Z,58.20
2017-04-22T00:35:34.050Z,58.30
2017-04-22T00:36:38.760Z,58.30
2017-04-22T00:37:44.386Z,58.30
2017-04-22T00:38:49.985Z,58.30
2017-04-22T00:39:54.717Z,58.20
2017-04-22T00:41:00.274Z,58.40
2017-04-22T00:42:05.937Z,58.40
2017-04-22T00:43:11.319Z,58.40
2017-04-22T00:44:16.807Z,58.60
2017-04-22T00:45:23.112Z,58.30
2017-04-22T00:46:28.042Z,58.30
2017-04-22T00:48:39.896Z,58.40
2017-04-22T00:49:44.645Z,58.30
2017-04-22T00:50:50.113Z,58.30
2017-04-22T00:51:54.940Z,58.20
2017-04-22T00:53:00.556Z,58.30
2017-04-22T00:55:12.520Z,58.30
2017-04-22T00:56:18.000Z,58.30
2017-04-22T00:57:23.645Z,58.60
2017-04-22T00:58:29.157Z,58.40
2017-04-22T00:59:36.001Z,58.50
2017-04-22T01:00:41.503Z,58.30
2017-04-22T01:01:47.213Z,58.50
2017-04-22T01:02:53.713Z,58.20
2017-04-22T01:03:59.364Z,58.10
2017-04-22T01:05:04.957Z,58.50
2017-04-22T01:06:09.730Z,58.50
2017-04-22T01:07:15.344Z,58.30
2017-04-22T01:08:21.008Z,58.20
2017-04-22T01:09:26.464Z,58.20
2017-04-22T01:10:31.904Z,58.00
2017-04-22T01:11:38.132Z,58.30
2017-04-22T01:12:44.590Z,58.00
2017-04-22T01:13:50.001Z,58.00
2017-04-22T01:14:54.822Z,57.90
2017-04-22T01:16:01.246Z,58.00
2017-04-22T01:17:06.938Z,57.80
2017-04-22T01:18:11.833Z,57.80
2017-04-22T01:19:18.350Z,58.00
2017-04-22T01:20:23.136Z,58.00
2017-04-22T01:21:28.520Z,58.20
2017-04-22T01:22:34.111Z,58.00
2017-04-22T01:23:40.356Z,58.10
2017-04-22T01:24:46.089Z,58.10
2017-04-22T01:25:52.374Z,58.00
2017-04-22T01:26:57.076Z,58.00
2017-04-22T01:28:02.740Z,57.90
2017-04-22T01:29:09.060Z,58.10
2017-04-22T01:30:13.962Z,58.10
2017-04-22T01:31:19.284Z,58.20
2017-04-22T01:32:24.024Z,58.00
2017-04-22T01:33:29.704Z,58.10
2017-04-22T01:34:35.077Z,58.20
2017-04-22T01:35:39.876Z,58.00
2017-04-22T01:36:46.183Z,58.10
2017-04-22T01:37:50.996Z,58.00
2017-04-22T01:38:57.493Z,58.20
2017-04-22T01:40:02.366Z,58.10
2017-04-22T01:41:09.737Z,57.80
2017-04-22T01:42:14.571Z,57.80
2017-04-22T01:43:20.037Z,58.00
2017-04-22T01:44:25.579Z,58.60
2017-04-22T01:45:30.995Z,58.00
2017-04-22T01:46:36.665Z,57.70
2017-04-22T01:47:42.877Z,57.70
2017-04-22T01:48:47.805Z,57.70
2017-04-22T01:49:53.245Z,57.60
2017-04-22T01:50:58.862Z,57.60
2017-04-22T01:52:04.453Z,57.50
2017-04-22T01:53:10.057Z,57.50
2017-04-22T01:54:15.511Z,57.40
2017-04-22T01:55:21.167Z,57.50
2017-04-22T01:56:26.616Z,57.60
2017-04-22T01:57:32.281Z,57.50
2017-04-22T01:58:38.641Z,56.50
2017-04-22T01:59:44.318Z,56.50
2017-04-22T02:00:49.781Z,56.30
2017-04-22T02:01:54.617Z,56.40
2017-04-22T02:03:00.129Z,56.00
2017-04-22T02:04:06.374Z,55.90
2017-04-22T02:05:11.206Z,55.90
2017-04-22T02:06:16.694Z,55.90
2017-04-22T02:07:23.076Z,55.90
2017-04-22T02:08:29.550Z,55.50
2017-04-22T02:09:35.252Z,55.60
2017-04-22T02:10:40.900Z,55.90
2017-04-22T02:11:46.452Z,56.00
2017-04-22T02:12:51.956Z,55.80
2017-04-22T02:13:57.491Z,55.90
2017-04-22T02:15:03.022Z,56.20
2017-04-22T02:16:09.525Z,56.20
2017-04-22T02:17:14.396Z,56.20
2017-04-22T02:18:19.782Z,56.10
2017-04-22T02:19:25.465Z,56.20
2017-04-22T02:20:31.930Z,56.40
2017-04-22T02:21:36.657Z,56.40
2017-04-22T02:22:42.185Z,56.30
2017-04-22T02:23:47.713Z,56.20
2017-04-22T02:24:53.971Z,56.20
2017-04-22T02:25:59.630Z,56.20
2017-04-22T02:27:05.198Z,56.30
2017-04-22T02:28:10.869Z,56.40
2017-04-22T02:29:16.357Z,56.30
2017-04-22T02:30:22.637Z,56.40
2017-04-22T02:31:27.420Z,56.40
2017-04-22T02:32:33.034Z,56.50
2017-04-22T02:33:38.551Z,56.10
2017-04-22T02:34:43.324Z,56.00
2017-04-22T02:35:48.957Z,56.50
2017-04-22T02:36:55.121Z,56.40
2017-04-22T02:37:59.954Z,56.30
2017-04-22T02:39:04.936Z,56.40
2017-04-22T02:40:10.159Z,56.60
2017-04-22T02:41:17.547Z,56.50
2017-04-22T02:42:22.388Z,56.60
2017-04-22T02:43:27.927Z,56.30
2017-04-22T02:44:33.781Z,56.50
2017-04-22T02:45:38.981Z,56.50
2017-04-22T02:46:44.550Z,56.60
2017-04-22T02:47:50.841Z,56.60
2017-04-22T02:48:56.422Z,56.60
2017-04-22T02:50:01.953Z,56.90
2017-04-22T02:51:06.737Z,56.90
2017-04-22T02:52:12.272Z,57.00
2017-04-22T02:53:17.741Z,57.10
2017-04-22T02:54:23.372Z,57.40
2017-04-22T02:55:28.792Z,57.40
2017-04-22T02:56:34.412Z,57.40
2017-04-22T02:57:40.157Z,57.70
2017-04-22T02:58:45.596Z,57.50
2017-04-22T02:59:51.139Z,57.60
2017-04-22T03:00:56.670Z,57.70
2017-04-22T03:02:02.911Z,57.90
2017-04-22T03:03:08.682Z,57.90
2017-04-22T03:04:14.192Z,57.70
2017-04-22T03:05:19.733Z,58.00
2017-04-22T03:06:25.288Z,58.10
2017-04-22T03:07:30.919Z,57.70
2017-04-22T03:08:38.103Z,57.90
2017-04-22T03:09:42.978Z,57.90
2017-04-22T03:10:48.634Z,57.70
2017-04-22T03:11:54.041Z,57.90
2017-04-22T03:12:59.625Z,57.90
2017-04-22T03:14:05.113Z,57.70
2017-04-22T03:15:10.646Z,57.80
2017-04-22T03:16:16.912Z,57.80
2017-04-22T03:17:21.753Z,57.80
2017-04-22T03:18:27.184Z,57.50
2017-04-22T03:19:32.684Z,57.50
2017-04-22T03:20:39.731Z,57.70
2017-04-22T03:21:45.509Z,57.50
2017-04-22T03:22:50.321Z,57.50
2017-04-22T03:23:55.861Z,57.50
2017-04-22T03:25:01.608Z,57.60
2017-04-22T03:26:07.182Z,57.40
2017-04-22T03:27:12.781Z,57.50
2017-04-22T03:28:18.254Z,57.60
2017-04-22T03:29:24.484Z,57.80
2017-04-22T03:30:29.414Z,57.80
2017-04-22T03:31:35.150Z,57.80
2017-04-22T03:32:41.334Z,57.80
2017-04-22T03:33:47.113Z,57.70
2017-04-22T03:34:52.769Z,57.90
2017-04-22T03:35:58.516Z,57.80
2017-04-22T03:37:03.945Z,58.00
2017-04-22T03:38:09.502Z,57.90
2017-04-22T03:39:14.998Z,58.00
2017-04-22T03:40:20.604Z,58.00
2017-04-22T03:41:27.705Z,57.90
2017-04-22T03:42:32.540Z,58.00
2017-04-22T03:43:38.195Z,58.20
2017-04-22T03:44:43.673Z,58.10
2017-04-22T03:45:49.947Z,58.20
2017-04-22T03:46:54.974Z,58.10
2017-04-22T03:48:01.356Z,58.30
2017-04-22T03:49:06.833Z,58.20
2017-04-22T03:50:11.749Z,58.30
2017-04-22T03:51:17.385Z,58.20
2017-04-22T03:52:22.874Z,58.10
2017-04-22T03:53:28.328Z,58.20
2017-04-22T03:54:33.792Z,58.20
2017-04-22T03:55:39.373Z,58.20
2017-04-22T03:56:45.863Z,58.20
2017-04-22T03:57:51.403Z,58.30
2017-04-22T03:58:56.959Z,58.10
2017-04-22T04:00:02.668Z,58.10
2017-04-22T04:01:08.208Z,58.40
2017-04-22T04:02:13.712Z,58.60
2017-04-22T04:03:19.412Z,58.50
2017-04-22T04:04:25.013Z,58.50
2017-04-22T04:05:31.272Z,58.70
2017-04-22T04:06:35.986Z,58.60
2017-04-22T04:07:42.392Z,58.30
2017-04-22T04:08:48.012Z,58.30
2017-04-22T04:09:52.765Z,58.30
2017-04-22T04:10:58.980Z,58.60
2017-04-22T04:12:03.889Z,58.40
2017-04-22T04:13:09.397Z,58.40
2017-04-22T04:14:14.907Z,58.30
2017-04-22T04:15:21.245Z,58.30
2017-04-22T04:16:26.102Z,58.30
2017-04-22T04:17:31.478Z,58.40
2017-04-22T04:18:37.006Z,58.50
2017-04-22T04:19:42.484Z,58.30
2017-04-22T04:20:47.908Z,58.50
2017-04-22T04:21:53.428Z,58.50
2017-04-22T04:22:59.045Z,58.40
2017-04-22T04:24:04.556Z,58.30
2017-04-22T04:25:10.249Z,58.30
2017-04-22T04:26:15.749Z,58.50
2017-04-22T04:27:22.138Z,58.40
2017-04-22T04:28:26.870Z,58.30
2017-04-22T04:29:32.419Z,58.50
2017-04-22T04:30:38.003Z,58.50
2017-04-22T04:31:44.228Z,59.10
2017-04-22T04:32:49.896Z,59.00
2017-04-22T04:33:55.410Z,58.80
2017-04-22T04:35:00.828Z,58.60
2017-04-22T04:36:06.515Z,58.70
2017-04-22T04:37:11.856Z,58.60
2017-04-22T04:38:18.275Z,58.60
2017-04-22T04:39:22.981Z,58.60
2017-04-22T04:40:29.312Z,59.20
2017-04-22T04:41:35.667Z,58.50
2017-04-22T04:42:40.636Z,58.90
2017-04-22T04:43:46.032Z,58.40
2017-04-22T04:44:52.308Z,58.80
2017-04-22T04:45:58.040Z,58.60
2017-04-22T04:47:03.772Z,58.70
2017-04-22T04:48:09.425Z,58.70
2017-04-22T04:49:15.197Z,58.60
2017-04-22T04:50:20.396Z,58.70
2017-04-22T04:51:26.046Z,58.50
2017-04-22T04:52:31.835Z,58.60
2017-04-22T04:53:37.232Z,58.70
2017-04-22T04:54:42.873Z,58.60
2017-04-22T04:55:48.442Z,58.50
2017-04-22T04:56:53.862Z,58.50
2017-04-22T04:57:58.623Z,58.60
2017-04-22T04:59:04.972Z,58.50
2017-04-22T05:00:09.789Z,58.30
2017-04-22T05:01:16.285Z,58.60
2017-04-22T05:02:21.818Z,58.60
2017-04-22T05:03:26.548Z,58.60
2017-04-22T05:04:32.060Z,58.70
2017-04-22T05:05:37.694Z,58.60
2017-04-22T05:06:43.142Z,58.60
2017-04-22T05:07:48.596Z,58.60
2017-04-22T05:08:55.946Z,58.80
2017-04-22T05:10:01.565Z,58.90
2017-04-22T05:11:07.301Z,59.60
2017-04-22T05:12:12.188Z,58.90
2017-04-22T05:13:18.280Z,59.10
2017-04-22T05:14:23.296Z,59.00
2017-04-22T05:15:28.716Z,59.00
2017-04-22T05:16:34.340Z,59.00
2017-04-22T05:17:39.953Z,59.10
2017-04-22T05:18:45.569Z,59.00
2017-04-22T05:19:52.178Z,59.10
2017-04-22T05:20:57.746Z,59.10
2017-04-22T05:22:03.266Z,59.20
2017-04-22T05:23:08.926Z,59.10
2017-04-22T05:24:14.451Z,58.90
2017-04-22T05:25:21.031Z,59.10
2017-04-22T05:26:26.627Z,59.00
2017-04-22T05:27:32.479Z,58.90
2017-04-22T05:28:37.633Z,58.80
2017-04-22T05:29:43.056Z,58.80
2017-04-22T05:30:48.669Z,58.60
2017-04-22T05:31:54.192Z,58.60
2017-04-22T05:32:59.850Z,58.80
2017-04-22T05:34:05.401Z,58.70
2017-04-22T05:35:11.744Z,58.50
2017-04-22T05:36:16.756Z,58.50
2017-04-22T05:37:22.852Z,58.40
2017-04-22T05:38:27.532Z,58.30
2017-04-22T05:39:33.793Z,58.30
2017-04-22T05:40:38.687Z,58.30
2017-04-22T05:41:44.385Z,58.50
2017-04-22T05:42:50.006Z,58.30
2017-04-22T05:43:55.548Z,58.10
2017-04-22T05:45:00.390Z,58.10
2017-04-22T05:46:06.586Z,58.20
2017-04-22T05:47:11.533Z,58.10
2017-04-22T05:48:17.178Z,58.20
2017-04-22T05:49:22.783Z,58.30
2017-04-22T05:50:28.297Z,58.40
2017-04-22T05:51:33.825Z,58.40
2017-04-22T05:52:39.243Z,58.20
2017-04-22T05:53:45.533Z,58.10
2017-04-22T05:54:51.860Z,58.10
2017-04-22T05:55:57.059Z,58.10
2017-04-22T05:57:03.497Z,58.10
2017-04-22T05:58:09.198Z,58.10
2017-04-22T05:59:15.368Z,58.10
2017-04-22T06:00:20.233Z,58.10
2017-04-22T06:01:25.801Z,58.20
2017-04-22T06:02:31.224Z,58.30
2017-04-22T06:03:36.723Z,58.50
2017-04-22T06:04:43.113Z,58.50
2017-04-22T06:05:48.780Z,58.50
2017-04-22T06:06:55.071Z,58.90
2017-04-22T06:08:00.524Z,59.20
2017-04-22T06:09:08.010Z,59.10
2017-04-22T06:10:12.880Z,59.60
2017-04-22T06:11:18.420Z,59.50
2017-04-22T06:12:24.816Z,60.40
2017-04-22T06:13:29.604Z,60.20
2017-04-22T06:14:35.220Z,60.70
2017-04-22T06:15:41.521Z,61.60
2017-04-22T06:16:46.301Z,61.60
2017-04-22T06:17:52.714Z,60.80
2017-04-22T06:18:57.505Z,61.40
2017-04-22T06:20:03.956Z,60.60
2017-04-22T06:21:08.701Z,60.50
2017-04-22T06:22:15.049Z,60.00
2017-04-22T06:23:19.823Z,59.90
2017-04-22T06:24:25.532Z,61.10
2017-04-22T06:25:31.088Z,62.80
2017-04-22T06:26:36.492Z,60.60
2017-04-22T06:27:42.133Z,60.30
2017-04-22T06:28:48.369Z,61.00
2017-04-22T06:29:53.331Z,60.90
2017-04-22T06:30:58.805Z,60.30
2017-04-22T06:32:05.226Z,59.80
2017-04-22T06:33:09.948Z,59.80
2017-04-22T06:34:15.493Z,60.90
2017-04-22T06:35:21.032Z,60.10
2017-04-22T06:36:26.696Z,60.30
2017-04-22T06:37:32.187Z,59.40
2017-04-22T06:38:38.362Z,60.40
2017-04-22T06:39:44.031Z,60.40
2017-04-22T06:40:49.511Z,60.70
2017-04-22T06:41:55.860Z,59.80
2017-04-22T06:43:00.672Z,59.90
2017-04-22T06:44:07.103Z,59.60
2017-04-22T06:45:12.662Z,60.70
2017-04-22T06:46:17.325Z,60.20
2017-04-22T06:47:23.801Z,60.90
2017-04-22T06:48:28.720Z,61.00
2017-04-22T06:49:34.333Z,60.80
2017-04-22T06:50:39.825Z,61.00
2017-04-22T06:51:45.341Z,59.70
2017-04-22T06:52:51.703Z,59.50
2017-04-22T06:53:57.463Z,59.90
2017-04-22T06:55:02.204Z,59.80
2017-04-22T06:56:07.593Z,59.50
2017-04-22T06:57:13.272Z,59.90
2017-04-22T06:58:20.738Z,59.90
2017-04-22T06:59:25.453Z,59.60
2017-04-22T07:00:31.108Z,61.00
2017-04-22T07:01:37.427Z,59.70
2017-04-22T07:02:43.641Z,59.80
2017-04-22T07:03:48.921Z,59.30
2017-04-22T07:04:54.612Z,59.60
2017-04-22T07:06:00.929Z,59.10
2017-04-22T07:07:05.606Z,59.10
2017-04-22T07:08:11.108Z,58.90
2017-04-22T07:09:17.561Z,59.20
2017-04-22T07:10:22.435Z,59.10
2017-04-22T07:11:27.951Z,59.30
2017-04-22T07:12:33.577Z,59.20
2017-04-22T07:13:39.993Z,59.40
2017-04-22T07:14:45.644Z,59.30
2017-04-22T07:15:50.310Z,58.90
2017-04-22T07:16:56.659Z,58.80
2017-04-22T07:18:01.449Z,58.80
2017-04-22T07:19:07.647Z,59.80
2017-04-22T07:20:12.420Z,59.80
2017-04-22T07:21:18.006Z,58.80
2017-04-22T07:22:23.720Z,58.80
2017-04-22T07:23:29.287Z,59.30
2017-04-22T07:24:35.729Z,59.40
2017-04-22T07:25:41.340Z,58.90
2017-04-22T07:26:47.064Z,58.90
2017-04-22T07:27:53.428Z,58.40
2017-04-22T07:28:59.014Z,59.10
2017-04-22T07:30:03.919Z,59.10
2017-04-22T07:31:09.398Z,58.70
2017-04-22T07:32:15.100Z,58.50
2017-04-22T07:33:20.377Z,58.40
2017-04-22T07:34:25.868Z,58.70
2017-04-22T07:35:31.536Z,58.60
2017-04-22T07:36:38.024Z,59.10
2017-04-22T07:37:42.893Z,59.00
2017-04-22T07:38:49.517Z,58.60
2017-04-22T07:39:55.755Z,58.70
2017-04-22T07:41:00.642Z,59.40
2017-04-22T07:42:06.970Z,58.90
2017-04-22T07:43:12.608Z,58.80
2017-04-22T07:44:18.156Z,59.00
2017-04-22T07:45:24.500Z,58.80
2017-04-22T07:46:29.378Z,58.80
2017-04-22T07:47:34.205Z,58.60
2017-04-22T07:48:39.691Z,58.90
2017-04-22T07:49:45.278Z,59.10
2017-04-22T07:50:51.614Z,58.90
2017-04-22T07:51:56.383Z,58.90
2017-04-22T07:53:01.976Z,59.10
2017-04-22T07:54:07.550Z,59.40
2017-04-22T07:55:13.097Z,59.70
2017-04-22T07:56:18.602Z,59.70
2017-04-22T07:57:24.299Z,60.00
2017-04-22T07:58:29.805Z,59.90
2017-04-22T07:59:36.054Z,61.90
2017-04-22T08:00:40.802Z,61.70
2017-04-22T08:01:46.284Z,60.90
2017-04-22T08:02:51.773Z,62.30
2017-04-22T08:03:56.557Z,60.80
2017-04-22T08:05:02.926Z,61.10
2017-04-22T08:06:07.849Z,61.10
2017-04-22T08:07:14.141Z,62.10
2017-04-22T08:08:18.927Z,62.00
2017-04-22T08:09:26.207Z,63.50
2017-04-22T08:10:31.012Z,63.50
2017-04-22T08:11:37.995Z,58.90
2017-04-22T08:12:43.154Z,58.80
2017-04-22T08:13:48.690Z,57.50
2017-04-22T08:14:54.133Z,57.90
2017-04-22T08:16:00.461Z,58.40
2017-04-22T08:17:06.877Z,57.40
2017-04-22T08:18:12.104Z,57.30
2017-04-22T08:19:18.330Z,59.20
2017-04-22T08:20:24.367Z,59.00
2017-04-22T08:21:29.175Z,59.00
2017-04-22T08:22:34.656Z,58.30
2017-04-22T08:23:41.036Z,58.90
2017-04-22T08:24:46.462Z,58.70
2017-04-22T08:25:52.428Z,58.90
2017-04-22T08:26:57.217Z,58.80
2017-04-22T08:28:03.021Z,58.20
2017-04-22T08:29:08.223Z,59.10
2017-04-22T08:30:13.632Z,58.90
2017-04-22T08:31:19.389Z,58.90
2017-04-22T08:32:24.840Z,58.50
2017-04-22T08:33:30.387Z,58.20
2017-04-22T08:34:35.996Z,57.90
2017-04-22T08:35:41.540Z,58.60
2017-04-22T08:36:48.052Z,58.80
2017-04-22T08:37:53.716Z,58.80
2017-04-22T08:38:59.217Z,58.10
2017-04-22T08:40:04.697Z,58.30
2017-04-22T08:41:10.198Z,58.20
2017-04-22T08:42:17.715Z,58.90
2017-04-22T08:43:23.272Z,58.40
2017-04-22T08:44:28.056Z,58.40
2017-04-22T08:45:33.675Z,58.30
2017-04-22T08:46:39.301Z,58.00
2017-04-22T08:47:44.965Z,57.90
2017-04-22T08:48:51.193Z,57.00
2017-04-22T08:49:56.880Z,58.00
2017-04-22T08:51:02.532Z,57.50
2017-04-22T08:52:07.275Z,57.50
2017-04-22T08:53:12.977Z,57.50
2017-04-22T08:54:19.309Z,58.70
2017-04-22T08:55:24.849Z,58.00
2017-04-22T08:56:30.439Z,57.90
2017-04-22T08:57:35.280Z,57.90
2017-04-22T08:58:40.902Z,57.40
2017-04-22T08:59:46.571Z,58.20
2017-04-22T09:00:52.741Z,58.40
2017-04-22T09:01:57.636Z,58.30
2017-04-22T09:03:03.229Z,58.70
2017-04-22T09:04:08.892Z,58.90
2017-04-22T09:05:15.411Z,58.80
2017-04-22T09:06:20.931Z,59.50
2017-04-22T09:07:25.749Z,59.40
2017-04-22T09:08:31.248Z,58.50
2017-04-22T09:09:38.826Z,58.20
2017-04-22T09:10:43.610Z,58.50
2017-04-22T09:11:49.283Z,58.40
2017-04-22T09:12:54.765Z,58.60
2017-04-22T09:14:00.459Z,58.60
2017-04-22T09:15:06.247Z,58.20
2017-04-22T09:16:11.512Z,58.40
2017-04-22T09:17:17.050Z,57.90
2017-04-22T09:18:22.689Z,58.00
2017-04-22T09:19:28.192Z,58.70
2017-04-22T09:20:33.841Z,58.90
2017-04-22T09:21:39.441Z,59.30
2017-04-22T09:22:45.074Z,58.70
2017-04-22T09:23:50.660Z,59.00
2017-04-22T09:24:57.014Z,59.70
2017-04-22T09:26:01.925Z,59.60
2017-04-22T09:27:08.177Z,60.00
2017-04-22T09:28:13.895Z,59.90
2017-04-22T09:29:18.632Z,59.90
2017-04-22T09:30:24.264Z,59.90
2017-04-22T09:31:30.553Z,59.40
2017-04-22T09:32:35.396Z,59.40
2017-04-22T09:33:40.993Z,58.10
2017-04-22T09:34:46.477Z,59.30
2017-04-22T09:35:52.100Z,59.10
2017-04-22T09:36:57.684Z,59.10
2017-04-22T09:38:03.332Z,59.00
2017-04-22T09:39:08.810Z,58.50
2017-04-22T09:40:15.123Z,58.20
2017-04-22T09:41:20.760Z,57.40
2017-04-22T09:42:25.812Z,57.40
2017-04-22T09:43:31.187Z,57.60
2017-04-22T09:44:37.501Z,56.90
2017-04-22T09:45:43.164Z,56.60
2017-04-22T09:46:47.909Z,56.60
2017-04-22T09:47:53.649Z,56.60
2017-04-22T09:48:59.678Z,56.30
2017-04-22T09:50:04.474Z,56.20
2017-04-22T09:51:10.142Z,55.90
2017-04-22T09:52:16.580Z,55.60
2017-04-22T09:53:22.117Z,54.50
2017-04-22T09:54:26.947Z,54.50
2017-04-22T09:55:32.608Z,55.80
2017-04-22T09:56:38.105Z,55.60
2017-04-22T09:57:43.592Z,55.90
2017-04-22T09:58:48.349Z,55.90
2017-04-22T09:59:53.814Z,56.00
2017-04-22T10:00:59.313Z,54.20
2017-04-22T10:02:04.142Z,54.10
2017-04-22T10:03:09.673Z,54.70
2017-04-22T10:04:15.206Z,55.60
2017-04-22T10:05:20.111Z,55.50
2017-04-22T10:06:25.716Z,55.10
2017-04-22T10:07:31.344Z,54.40
2017-04-22T10:08:36.804Z,53.60
2017-04-22T10:09:43.245Z,54.10
2017-04-22T10:10:48.486Z,54.00
2017-04-22T10:11:53.596Z,54.40
2017-04-22T10:12:59.217Z,52.80
2017-04-22T10:14:04.815Z,52.10
2017-04-22T10:15:11.227Z,54.60
2017-04-22T10:16:16.836Z,54.40
2017-04-22T10:17:21.624Z,54.40
2017-04-22T10:18:27.942Z,54.30
2017-04-22T10:19:33.405Z,54.90
2017-04-22T10:20:39.105Z,55.30
2017-04-22T10:21:43.916Z,55.60
2017-04-22T10:22:50.362Z,55.20
2017-04-22T10:23:55.077Z,55.20
2017-04-22T10:25:00.717Z,56.20
2017-04-22T10:26:06.319Z,55.60
2017-04-22T10:27:11.796Z,54.40
2017-04-22T10:28:17.308Z,55.70
2017-04-22T10:29:22.800Z,55.50
2017-04-22T10:30:27.733Z,54.40
2017-04-22T10:31:33.985Z,54.30
2017-04-22T10:32:38.719Z,54.20
2017-04-22T10:33:45.105Z,55.30
2017-04-22T10:34:49.910Z,54.70
2017-04-22T10:35:55.417Z,54.40
2017-04-22T10:37:01.861Z,54.40
2017-04-22T10:38:08.265Z,55.90
2017-04-22T10:39:13.026Z,55.80
2017-04-22T10:40:18.616Z,55.20
2017-04-22T10:41:24.248Z,54.20
2017-04-22T10:42:29.841Z,55.00
2017-04-22T10:43:35.313Z,53.30
2017-04-22T10:44:41.697Z,53.10
2017-04-22T10:45:47.285Z,52.40
2017-04-22T10:46:51.961Z,52.30
2017-04-22T10:47:57.697Z,52.90
2017-04-22T10:49:03.889Z,53.50
2017-04-22T10:50:08.681Z,53.50
2017-04-22T10:51:14.124Z,51.70
2017-04-22T10:52:19.744Z,51.90
2017-04-22T10:53:25.376Z,52.40
2017-04-22T10:54:31.745Z,50.50
2017-04-22T10:55:37.308Z,50.20
2017-04-22T10:56:42.032Z,50.10
2017-04-22T10:57:47.650Z,49.80
2017-04-22T10:58:53.953Z,50.20
2017-04-22T10:59:58.777Z,50.10
2017-04-22T11:01:04.353Z,50.60
2017-04-22T11:02:09.850Z,50.70
2017-04-22T11:03:15.401Z,51.30
2017-04-22T11:04:21.066Z,50.60
2017-04-22T11:05:27.250Z,49.90
2017-04-22T11:06:32.977Z,49.50
2017-04-22T11:07:37.733Z,49.50
2017-04-22T11:08:43.970Z,49.40
2017-04-22T11:09:50.521Z,49.40
2017-04-22T11:10:55.333Z,49.30
2017-04-22T11:12:00.931Z,48.80
2017-04-22T11:13:06.462Z,48.90
2017-04-22T11:14:12.701Z,49.80
2017-04-22T11:15:17.547Z,49.70
2017-04-22T11:16:23.181Z,49.10
2017-04-22T11:17:28.702Z,50.40
2017-04-22T11:18:34.556Z,47.40
2017-04-22T11:19:39.874Z,47.00
2017-04-22T11:20:46.417Z,47.50
2017-04-22T11:21:51.310Z,47.50
2017-04-22T11:22:56.708Z,47.80
2017-04-22T11:24:02.194Z,47.20
2017-04-22T11:25:07.773Z,46.00
2017-04-22T11:26:12.675Z,45.90
2017-04-22T11:27:18.741Z,46.10
2017-04-22T11:28:23.589Z,46.00
2017-04-22T11:29:29.104Z,45.20
2017-04-22T11:30:35.356Z,44.60
2017-04-22T11:31:40.322Z,44.60
2017-04-22T11:32:45.820Z,45.30
2017-04-22T11:33:51.461Z,46.20
2017-04-22T11:34:56.193Z,45.90
2017-04-22T11:36:02.588Z,46.40
2017-04-22T11:37:09.062Z,46.50
2017-04-22T11:38:14.585Z,46.20
2017-04-22T11:39:20.221Z,45.60
2017-04-22T11:40:24.890Z,45.50
2017-04-22T11:41:31.357Z,46.20
2017-04-22T11:42:36.941Z,46.30
2017-04-22T11:43:41.765Z,45.10
2017-04-22T11:44:48.200Z,44.50
2017-04-22T11:45:53.068Z,44.50
2017-04-22T11:46:58.677Z,44.80
2017-04-22T11:48:05.282Z,45.10
2017-04-22T11:49:10.778Z,45.00
2017-04-22T11:50:16.440Z,45.20
2017-04-22T11:51:22.037Z,44.70
2017-04-22T11:52:27.630Z,45.00
2017-04-22T11:53:33.181Z,45.10
2017-04-22T11:54:38.772Z,45.40
2017-04-22T11:55:44.348Z,44.50
2017-04-22T11:56:50.732Z,45.70
2017-04-22T11:57:55.718Z,45.30
2017-04-22T11:59:01.200Z,44.80
2017-04-22T12:00:07.576Z,44.00
2017-04-22T12:01:12.560Z,44.00
2017-04-22T12:02:18.160Z,44.70
2017-04-22T12:03:23.696Z,44.30
2017-04-22T12:04:29.346Z,44.80
2017-04-22T12:05:34.682Z,45.30
2017-04-22T12:06:40.075Z,45.80
2017-04-22T12:07:46.330Z,45.40
2017-04-22T12:08:51.357Z,45.40
2017-04-22T12:09:57.821Z,44.80
2017-04-22T12:11:02.552Z,44.60
2017-04-22T12:12:08.194Z,44.20
2017-04-22T12:13:14.456Z,45.30
2017-04-22T12:14:19.940Z,45.20
2017-04-22T12:15:24.805Z,45.20
2017-04-22T12:16:30.558Z,45.80
2017-04-22T12:17:36.817Z,46.20
2017-04-22T12:18:41.601Z,46.20
2017-04-22T12:19:47.220Z,45.80
2017-04-22T12:20:52.759Z,46.70
2017-04-22T12:21:57.434Z,46.20
2017-04-22T12:23:03.100Z,45.80
2017-04-22T12:24:08.681Z,46.20
2017-04-22T12:25:14.317Z,46.00
2017-04-22T12:26:19.896Z,45.30
2017-04-22T12:27:25.314Z,45.60
2017-04-22T12:28:30.097Z,45.50
2017-04-22T12:29:35.665Z,44.80
2017-04-22T12:30:40.964Z,44.40
2017-04-22T12:31:46.504Z,45.10
2017-04-22T12:32:52.781Z,45.00
2017-04-22T12:33:57.582Z,45.10
2017-04-22T12:35:03.162Z,45.40
2017-04-22T12:36:09.429Z,45.20
2017-04-22T12:37:14.140Z,45.20
2017-04-22T12:38:19.658Z,44.70
2017-04-22T12:39:25.177Z,44.60
2017-04-22T12:40:30.799Z,44.90
2017-04-22T12:41:37.038Z,44.10
2017-04-22T12:42:42.775Z,44.20
2017-04-22T12:43:48.103Z,44.50
2017-04-22T12:44:53.768Z,44.30
2017-04-22T12:45:59.140Z,43.80
2017-04-22T12:47:05.556Z,44.50
2017-04-22T12:48:10.584Z,44.50
2017-04-22T12:49:15.906Z,43.50
2017-04-22T12:50:22.194Z,43.50
2017-04-22T12:51:26.917Z,43.40
2017-04-22T12:52:32.480Z,43.30
2017-04-22T12:53:38.121Z,44.40
2017-04-22T12:54:44.409Z,44.30
2017-04-22T12:55:50.102Z,43.40
2017-04-22T12:56:54.954Z,43.30
2017-04-22T12:58:00.524Z,42.70
2017-04-22T12:59:06.190Z,43.00
2017-04-22T13:00:11.771Z,43.80
2017-04-22T13:01:18.137Z,42.60
2017-04-22T13:02:23.686Z,42.80
2017-04-22T13:03:28.425Z,42.80
2017-04-22T13:04:34.085Z,42.40
2017-04-22T13:05:39.560Z,42.10
2017-04-22T13:06:45.948Z,44.40
2017-04-22T13:07:50.734Z,44.40
2017-04-22T13:08:56.438Z,44.10
2017-04-22T13:10:03.509Z,45.00
2017-04-22T13:11:08.317Z,44.60
2017-04-22T13:12:13.919Z,44.30
2017-04-22T13:13:20.002Z,44.50
2017-04-22T13:14:25.613Z,44.60
2017-04-22T13:15:30.485Z,44.50
2017-04-22T13:16:36.730Z,45.10
2017-04-22T13:17:41.428Z,45.10
2017-04-22T13:18:48.512Z,44.40
2017-04-22T13:19:53.649Z,44.40
2017-04-22T13:20:59.266Z,44.20
2017-04-22T13:22:05.577Z,45.30
2017-04-22T13:23:11.020Z,44.90
2017-04-22T13:24:15.801Z,44.80
2017-04-22T13:25:21.421Z,44.40
2017-04-22T13:26:27.642Z,43.40
2017-04-22T13:27:33.281Z,45.00
2017-04-22T13:28:38.074Z,44.20
2017-04-22T13:29:43.585Z,43.40
2017-04-22T13:30:49.349Z,43.60
2017-04-22T13:31:55.466Z,43.60
2017-04-22T13:33:00.152Z,43.60
2017-04-22T13:34:05.752Z,43.60
2017-04-22T13:35:11.265Z,43.50
2017-04-22T13:36:16.893Z,43.40
2017-04-22T13:37:22.450Z,43.30
2017-04-22T13:38:28.758Z,43.30
2017-04-22T13:39:33.470Z,43.30
2017-04-22T13:40:38.926Z,43.20
2017-04-22T13:41:44.408Z,42.90
2017-04-22T13:42:50.054Z,41.20
2017-04-22T13:43:55.417Z,40.20
2017-04-22T13:45:01.029Z,40.30
2017-04-22T13:46:07.402Z,41.00
2017-04-22T13:47:12.188Z,40.80
2017-04-22T13:48:17.916Z,41.00
2017-04-22T13:49:23.279Z,41.30
2017-04-22T13:50:28.786Z,40.90
2017-04-22T13:51:35.056Z,41.10
2017-04-22T13:52:40.748Z,40.80
2017-04-22T13:53:45.588Z,40.80
2017-04-22T13:54:51.186Z,41.30
2017-04-22T13:55:57.597Z,40.80
2017-04-22T13:57:02.429Z,40.70
2017-04-22T13:58:07.989Z,41.30
2017-04-22T13:59:14.350Z,41.20
2017-04-22T14:00:19.037Z,40.40
2017-04-22T14:01:24.494Z,40.50
2017-04-22T14:02:31.421Z,40.40
2017-04-22T14:03:36.984Z,40.80
2017-04-22T14:04:43.243Z,40.20
2017-04-22T14:05:48.941Z,40.20
2017-04-22T14:06:54.384Z,40.20